Time;durP1;ratioP1;P1;durP2;ratioP2;P2;SDS_P1;SDS_P2;PMS_P1;PMS_P2;Temp;Humidity;BMP_temperature;BMP_pressure;BME280_temperature;BME280_humidity;BME280_pressure;Samples;Min_cycle;Max_cycle;Signal;HPM_P1;HPM_P2
2023/08/15 00:00:38;;;;;;;3.93;1.87;;;24.90;99.90;;;;;;4936466;29;20220;-81
2023/08/15 00:03:04;;;;;;;2.63;2.10;;;24.90;99.90;;;;;;4937485;28;20600;-81
2023/08/15 00:05:30;;;;;;;3.37;2.00;;;24.90;99.90;;;;;;4932984;29;20203;-81
2023/08/15 00:08:02;;;;;;;2.67;1.83;;;24.90;99.90;;;;;;4933514;29;20623;-81
2023/08/15 00:10:28;;;;;;;2.83;1.70;;;24.90;99.90;;;;;;4932759;29;20585;-81
2023/08/15 00:12:54;;;;;;;3.03;1.70;;;24.90;99.90;;;;;;4947107;29;21165;-81
2023/08/15 00:15:19;;;;;;;3.63;1.67;;;24.80;99.90;;;;;;4942725;29;20279;-81
2023/08/15 00:17:45;;;;;;;3.20;1.87;;;24.80;99.90;;;;;;4933196;29;20188;-81
2023/08/15 00:20:11;;;;;;;2.97;1.57;;;24.70;99.90;;;;;;4933608;29;20615;-81
2023/08/15 00:22:36;;;;;;;3.30;1.57;;;24.70;99.90;;;;;;4942213;28;20283;-81
2023/08/15 00:25:02;;;;;;;2.77;1.87;;;24.70;99.90;;;;;;4951670;29;20542;-80
2023/08/15 00:27:28;;;;;;;2.73;1.50;;;24.70;99.90;;;;;;4937307;29;20587;-81
2023/08/15 00:29:54;;;;;;;3.20;1.90;;;24.70;99.90;;;;;;4936940;29;20188;-80
2023/08/15 00:32:19;;;;;;;2.60;1.70;;;24.60;99.90;;;;;;4942667;28;20215;-80
2023/08/15 00:34:45;;;;;;;4.70;2.57;;;24.60;99.90;;;;;;4939148;28;20195;-81
2023/08/15 00:37:11;;;;;;;3.07;1.40;;;24.60;99.90;;;;;;4951284;29;20543;-80
2023/08/15 00:39:36;;;;;;;2.43;1.73;;;24.50;99.90;;;;;;4941676;29;20663;-81
2023/08/15 00:42:02;;;;;;;2.83;1.80;;;24.50;99.90;;;;;;4948301;28;20638;-81
2023/08/15 00:44:28;;;;;;;2.67;1.60;;;24.50;99.90;;;;;;4946268;29;20180;-81
2023/08/15 00:46:54;;;;;;;2.80;1.90;;;24.50;99.90;;;;;;4934316;29;20185;-81
2023/08/15 00:49:20;;;;;;;2.80;1.77;;;24.50;99.90;;;;;;4909006;29;20180;-81
2023/08/15 00:51:47;;;;;;;2.00;1.60;;;24.50;99.90;;;;;;4933677;29;20617;-81
2023/08/15 00:54:13;;;;;;;3.47;1.60;;;24.50;99.90;;;;;;4931765;29;20215;-81
2023/08/15 00:56:39;;;;;;;4.17;1.80;;;24.50;99.90;;;;;;4900640;29;21189;-82
2023/08/15 00:59:06;;;;;;;2.57;1.90;;;24.50;99.90;;;;;;4951755;29;20610;-82
2023/08/15 01:01:32;;;;;;;3.87;2.03;;;24.50;99.90;;;;;;4935629;29;20696;-81
2023/08/15 01:03:59;;;;;;;2.73;2.00;;;24.50;99.90;;;;;;4936796;29;20676;-80
2023/08/15 01:06:24;;;;;;;2.90;2.40;;;24.50;99.90;;;;;;4932738;29;20971;-80
2023/08/15 01:09:09;;;;;;;3.97;1.80;;;24.50;99.90;;;;;;4936044;29;21063;-80
2023/08/15 01:12:04;;;;;;;4.70;2.00;;;24.50;99.90;;;;;;4943108;28;20613;-81
2023/08/15 01:14:41;;;;;;;4.83;1.93;;;24.50;99.90;;;;;;4935681;29;20184;-80
2023/08/15 01:17:12;;;;;;;4.00;1.87;;;24.50;99.90;;;;;;4941370;29;20947;-80
2023/08/15 01:19:48;;;;;;;2.43;1.80;;;24.40;99.90;;;;;;4935089;29;20644;-80
2023/08/15 01:22:19;;;;;;;2.50;1.80;;;24.40;99.90;;;;;;4945256;29;20670;-80
2023/08/15 01:24:45;;;;;;;2.70;1.90;;;24.40;99.90;;;;;;4939209;29;20592;-80
2023/08/15 01:27:11;;;;;;;3.47;2.13;;;24.30;99.90;;;;;;4935289;29;20628;-80
2023/08/15 01:29:37;;;;;;;3.80;2.20;;;24.30;99.90;;;;;;4935550;29;20588;-80
2023/08/15 01:32:11;;;;;;;2.90;1.80;;;24.30;99.90;;;;;;4934877;29;20236;-80
2023/08/15 01:34:46;;;;;;;2.90;1.60;;;24.30;99.90;;;;;;4943270;29;20200;-81
2023/08/15 01:37:29;;;;;;;2.23;1.80;;;24.30;99.90;;;;;;4936908;29;20924;-81
2023/08/15 01:39:57;;;;;;;4.13;2.20;;;24.30;99.90;;;;;;4935109;29;21311;-81
2023/08/15 01:42:24;;;;;;;2.77;1.77;;;24.20;99.90;;;;;;4935480;29;20624;-81
2023/08/15 01:44:51;;;;;;;2.80;1.90;;;24.30;99.90;;;;;;4948587;29;20591;-81
2023/08/15 01:47:17;;;;;;;2.63;1.87;;;24.20;99.90;;;;;;4944934;28;21142;-81
2023/08/15 01:49:42;;;;;;;2.70;1.90;;;24.20;99.90;;;;;;4936347;29;20592;-80
2023/08/15 01:52:08;;;;;;;2.60;2.20;;;24.20;99.90;;;;;;4918715;29;20678;-81
2023/08/15 01:54:34;;;;;;;5.07;2.47;;;24.20;99.90;;;;;;4935991;29;20276;-81
2023/08/15 01:56:59;;;;;;;2.87;2.20;;;24.20;99.90;;;;;;4949286;28;20218;-80
2023/08/15 01:59:25;;;;;;;2.67;2.00;;;24.20;99.90;;;;;;4942166;29;20208;-81
2023/08/15 02:01:51;;;;;;;4.57;2.10;;;24.20;99.90;;;;;;4934533;29;20204;-80
2023/08/15 02:04:16;;;;;;;2.20;1.83;;;24.20;99.90;;;;;;4934914;29;20181;-80
2023/08/15 02:06:42;;;;;;;3.03;1.73;;;24.20;99.90;;;;;;4934758;29;20169;-81
2023/08/15 02:09:08;;;;;;;2.97;1.80;;;24.20;99.90;;;;;;4934654;29;20590;-81
2023/08/15 02:11:34;;;;;;;3.10;2.47;;;24.20;99.90;;;;;;4902374;29;20207;-81
2023/08/15 02:14:00;;;;;;;4.00;1.90;;;24.30;99.90;;;;;;4902661;29;20588;-82
2023/08/15 02:16:38;;;;;;;2.80;2.17;;;24.30;99.90;;;;;;4933616;29;20177;-82
2023/08/15 02:19:04;;;;;;;3.00;2.13;;;24.30;99.90;;;;;;4941246;29;20583;-82
2023/08/15 02:21:30;;;;;;;2.27;1.73;;;24.30;99.90;;;;;;4943616;29;21010;-81
2023/08/15 02:23:55;;;;;;;3.70;2.30;;;24.40;99.90;;;;;;4937447;29;20181;-81
2023/08/15 02:26:23;;;;;;;4.77;2.47;;;24.40;99.90;;;;;;4941264;29;20205;-80
2023/08/15 02:28:48;;;;;;;5.00;2.13;;;24.30;99.90;;;;;;4942657;29;20604;-81
2023/08/15 02:31:14;;;;;;;6.70;2.13;;;24.20;99.90;;;;;;4963101;28;20247;-81
2023/08/15 02:33:40;;;;;;;3.10;2.70;;;24.00;99.90;;;;;;4936689;29;20200;-81
2023/08/15 02:36:06;;;;;;;7.40;2.77;;;23.90;99.90;;;;;;4965563;29;20187;-81
2023/08/15 02:38:35;;;;;;;4.70;3.47;;;23.70;99.90;;;;;;4965664;29;20235;-80
2023/08/15 02:41:01;;;;;;;3.40;3.10;;;23.60;99.90;;;;;;4949181;29;20687;-79
2023/08/15 02:43:27;;;;;;;4.37;3.30;;;23.50;99.90;;;;;;4952946;29;20584;-80
2023/08/15 02:45:52;;;;;;;5.23;3.70;;;23.40;99.90;;;;;;4921754;29;20591;-80
2023/08/15 02:48:18;;;;;;;5.00;3.20;;;23.20;99.90;;;;;;4945345;29;20741;-79
2023/08/15 02:50:44;;;;;;;6.47;3.80;;;23.10;99.90;;;;;;4945173;28;20176;-80
2023/08/15 02:53:10;;;;;;;5.07;3.57;;;23.10;99.90;;;;;;4945028;29;20185;-79
2023/08/15 02:55:35;;;;;;;5.43;4.10;;;23.00;99.90;;;;;;4944544;28;20299;-80
2023/08/15 02:58:01;;;;;;;5.10;4.50;;;22.90;99.90;;;;;;4954052;28;20208;-79
2023/08/15 03:00:27;;;;;;;5.27;4.70;;;22.90;99.90;;;;;;4952308;29;20725;-79
2023/08/15 03:02:53;;;;;;;5.40;4.17;;;22.90;99.90;;;;;;4920807;29;21271;-80
2023/08/15 03:05:19;;;;;;;5.17;4.33;;;22.80;99.90;;;;;;4952293;29;20177;-80
2023/08/15 03:07:45;;;;;;;3.73;3.43;;;22.80;99.90;;;;;;4936385;29;20596;-80
2023/08/15 03:10:10;;;;;;;4.30;3.43;;;22.70;99.90;;;;;;4952364;29;20742;-80
2023/08/15 03:12:36;;;;;;;5.00;3.50;;;22.70;99.90;;;;;;4952193;28;20284;-80
2023/08/15 03:15:04;;;;;;;4.53;3.63;;;22.70;99.90;;;;;;4936664;29;20192;-80
2023/08/15 03:17:34;;;;;;;3.50;3.20;;;22.70;99.90;;;;;;4953430;29;20592;-80
2023/08/15 03:19:59;;;;;;;5.97;3.30;;;22.60;99.90;;;;;;4952060;28;20698;-80
2023/08/15 03:22:25;;;;;;;4.17;3.70;;;22.60;99.90;;;;;;4951822;28;21245;-80
2023/08/15 03:24:51;;;;;;;5.80;2.93;;;22.60;99.90;;;;;;4946637;28;20196;-79
2023/08/15 03:27:17;;;;;;;4.40;3.40;;;22.60;99.90;;;;;;4945843;29;20600;-79
2023/08/15 03:29:42;;;;;;;4.53;3.30;;;22.60;99.90;;;;;;4944373;29;20204;-80
2023/08/15 03:32:09;;;;;;;3.10;2.73;;;22.60;99.90;;;;;;4935053;29;20196;-80
2023/08/15 03:34:37;;;;;;;4.70;2.90;;;22.60;99.90;;;;;;4952064;29;20604;-80
2023/08/15 03:37:02;;;;;;;4.73;3.20;;;22.60;99.90;;;;;;4952182;29;21192;-79
2023/08/15 03:39:28;;;;;;;5.33;2.90;;;22.50;99.90;;;;;;4952092;29;20239;-80
2023/08/15 03:41:54;;;;;;;4.20;3.03;;;22.50;99.90;;;;;;4953251;28;20647;-79
2023/08/15 03:44:20;;;;;;;5.47;3.30;;;22.50;99.90;;;;;;4952165;29;20645;-80
2023/08/15 03:46:47;;;;;;;3.43;3.10;;;22.50;99.90;;;;;;4952164;29;20627;-80
2023/08/15 03:49:15;;;;;;;3.80;2.90;;;22.40;99.90;;;;;;4946708;29;20235;-81
2023/08/15 03:51:40;;;;;;;5.03;3.13;;;22.40;99.90;;;;;;4952123;28;21007;-80
2023/08/15 03:54:08;;;;;;;3.33;3.00;;;22.40;99.90;;;;;;4952065;29;20188;-79
2023/08/15 03:56:35;;;;;;;3.43;3.10;;;22.40;99.90;;;;;;4943522;29;20621;-79
2023/08/15 03:59:00;;;;;;;5.47;3.50;;;22.40;99.90;;;;;;4943783;28;20604;-81
2023/08/15 04:01:27;;;;;;;3.73;3.13;;;22.40;99.90;;;;;;4944873;28;20621;-80
2023/08/15 04:03:53;;;;;;;4.43;3.00;;;22.40;99.90;;;;;;4951734;28;20646;-79
2023/08/15 04:06:18;;;;;;;3.50;3.10;;;22.30;99.90;;;;;;4951815;29;20611;-80
2023/08/15 04:08:45;;;;;;;4.87;3.23;;;22.30;99.90;;;;;;4936256;29;20232;-79
2023/08/15 04:11:12;;;;;;;5.33;3.53;;;22.30;99.90;;;;;;4920347;29;20682;-79
2023/08/15 04:13:39;;;;;;;5.10;3.50;;;22.40;99.90;;;;;;4951741;29;20620;-79
2023/08/15 04:16:06;;;;;;;3.30;3.00;;;22.40;99.90;;;;;;4951577;29;20659;-79
2023/08/15 04:18:35;;;;;;;4.13;2.90;;;22.40;99.90;;;;;;4951741;29;20595;-79
2023/08/15 04:21:00;;;;;;;3.83;3.47;;;22.40;99.90;;;;;;4947414;28;20212;-80
2023/08/15 04:23:26;;;;;;;4.50;3.10;;;22.40;99.90;;;;;;4951804;29;20592;-80
2023/08/15 04:25:52;;;;;;;3.93;2.87;;;22.40;99.90;;;;;;4918204;29;20211;-79
2023/08/15 04:28:18;;;;;;;5.43;3.73;;;22.40;99.90;;;;;;4923119;29;20646;-79
2023/08/15 04:30:44;;;;;;;5.23;4.83;;;22.40;99.90;;;;;;4914253;29;20689;-79
2023/08/15 04:33:10;;;;;;;5.97;3.77;;;22.30;99.90;;;;;;4930678;29;20189;-79
2023/08/15 04:35:38;;;;;;;4.90;4.20;;;22.30;99.90;;;;;;4949433;28;20605;-79
2023/08/15 04:38:04;;;;;;;6.60;3.77;;;22.30;99.90;;;;;;4941857;29;20555;-80
2023/08/15 04:40:33;;;;;;;4.97;4.00;;;22.30;99.90;;;;;;4935982;29;20643;-79
2023/08/15 04:42:59;;;;;;;7.00;4.77;;;22.40;99.90;;;;;;4950664;28;21091;-79
2023/08/15 04:45:25;;;;;;;5.13;4.60;;;22.40;99.90;;;;;;4904329;29;20615;-80
2023/08/15 04:47:51;;;;;;;4.07;3.67;;;22.40;99.90;;;;;;4936534;29;21138;-80
2023/08/15 04:50:18;;;;;;;4.60;4.20;;;22.40;99.90;;;;;;4943867;29;20188;-79
2023/08/15 04:52:44;;;;;;;5.07;4.20;;;22.40;99.90;;;;;;4936177;29;20731;-80
2023/08/15 04:55:10;;;;;;;6.77;4.30;;;22.50;99.90;;;;;;4920249;29;20188;-80
2023/08/15 04:57:40;;;;;;;4.67;4.27;;;22.50;99.90;;;;;;4939276;29;21201;-79
2023/08/15 05:00:10;;;;;;;4.70;3.77;;;22.50;99.90;;;;;;4941321;29;20643;-79
2023/08/15 05:02:38;;;;;;;5.00;4.50;;;22.50;99.90;;;;;;4936489;29;20628;-79
2023/08/15 05:05:09;;;;;;;6.17;4.87;;;22.40;99.90;;;;;;4935921;29;20663;-80
2023/08/15 05:07:36;;;;;;;6.50;5.13;;;22.40;99.90;;;;;;4936400;29;20588;-79
2023/08/15 05:10:02;;;;;;;4.90;4.40;;;22.50;99.90;;;;;;4904977;29;20592;-81
2023/08/15 05:12:29;;;;;;;4.30;3.50;;;22.50;99.90;;;;;;4936808;29;20628;-80
2023/08/15 05:14:55;;;;;;;3.80;3.40;;;22.40;99.90;;;;;;4944437;28;21348;-80
2023/08/15 05:17:20;;;;;;;5.10;3.30;;;22.40;99.90;;;;;;4936009;29;20240;-80
2023/08/15 05:19:46;;;;;;;3.80;2.60;;;22.40;99.90;;;;;;4936897;29;20220;-80
2023/08/15 05:22:12;;;;;;;3.07;2.20;;;22.30;99.90;;;;;;4944367;28;20228;-80
2023/08/15 05:24:38;;;;;;;3.40;2.03;;;22.30;99.90;;;;;;4936151;29;20184;-80
2023/08/15 05:27:04;;;;;;;4.23;2.07;;;22.20;99.90;;;;;;4940722;29;20639;-80
2023/08/15 05:29:31;;;;;;;3.60;2.27;;;22.20;99.90;;;;;;4946818;29;20631;-80
2023/08/15 05:31:56;;;;;;;2.90;2.20;;;22.10;99.90;;;;;;4944818;28;20620;-80
2023/08/15 05:34:22;;;;;;;2.60;1.60;;;22.10;99.90;;;;;;4935809;29;20687;-80
2023/08/15 05:36:48;;;;;;;2.33;1.40;;;22.10;99.90;;;;;;4935139;29;20181;-80
2023/08/15 05:39:14;;;;;;;3.03;1.60;;;22.10;99.90;;;;;;4935661;29;20185;-80
2023/08/15 05:41:39;;;;;;;3.50;1.43;;;22.00;99.90;;;;;;4935449;29;20209;-80
2023/08/15 05:44:05;;;;;;;2.60;1.40;;;22.00;99.90;;;;;;4943291;28;20791;-80
2023/08/15 05:46:31;;;;;;;2.47;1.30;;;22.00;99.90;;;;;;4937101;29;20267;-80
2023/08/15 05:48:56;;;;;;;2.27;1.17;;;22.00;99.90;;;;;;4942640;29;20189;-81
2023/08/15 05:51:22;;;;;;;2.53;1.27;;;22.10;99.90;;;;;;4931748;29;20209;-80
2023/08/15 05:53:48;;;;;;;5.13;1.53;;;22.10;99.90;;;;;;4936183;29;20647;-80
2023/08/15 05:56:15;;;;;;;2.80;1.30;;;22.20;99.90;;;;;;4934908;29;20191;-80
2023/08/15 05:58:40;;;;;;;2.70;1.33;;;22.20;99.90;;;;;;4936741;29;20589;-80
2023/08/15 06:01:06;;;;;;;4.03;1.27;;;22.30;99.90;;;;;;4940921;28;20219;-80
2023/08/15 06:03:32;;;;;;;2.30;1.10;;;22.40;99.90;;;;;;4935852;29;20196;-80
2023/08/15 06:05:58;;;;;;;1.50;1.07;;;22.40;99.90;;;;;;4931444;29;20177;-80
2023/08/15 06:08:24;;;;;;;2.93;1.57;;;22.50;99.90;;;;;;4931558;29;20599;-80
2023/08/15 06:10:50;;;;;;;2.90;1.10;;;22.60;99.90;;;;;;4944364;28;20643;-80
2023/08/15 06:13:15;;;;;;;3.30;1.30;;;22.70;99.90;;;;;;4935117;29;20196;-80
2023/08/15 06:15:41;;;;;;;2.47;1.27;;;22.70;99.90;;;;;;4935704;29;20185;-80
2023/08/15 06:18:07;;;;;;;1.83;1.50;;;22.80;99.90;;;;;;4936139;29;20178;-80
2023/08/15 06:20:33;;;;;;;2.90;1.27;;;22.90;99.90;;;;;;4944408;29;20212;-78
2023/08/15 06:22:58;;;;;;;3.43;1.43;;;22.90;99.90;;;;;;4952477;28;20200;-77
2023/08/15 06:25:25;;;;;;;1.97;1.13;;;22.90;99.90;;;;;;4932408;29;20723;-77
2023/08/15 06:27:50;;;;;;;2.00;1.17;;;23.00;99.90;;;;;;4937511;29;20676;-78
2023/08/15 06:30:16;;;;;;;1.97;1.10;;;23.00;99.90;;;;;;4935185;29;20173;-77
2023/08/15 06:32:44;;;;;;;2.80;1.47;;;23.00;99.90;;;;;;4934136;29;20227;-77
2023/08/15 06:35:09;;;;;;;2.07;1.40;;;23.10;99.90;;;;;;4942755;29;20193;-78
2023/08/15 06:37:35;;;;;;;2.27;1.37;;;23.10;99.90;;;;;;4933527;29;20589;-78
2023/08/15 06:40:01;;;;;;;2.60;1.57;;;23.10;99.90;;;;;;4935187;29;20564;-79
2023/08/15 06:42:27;;;;;;;3.10;1.50;;;23.10;99.90;;;;;;4933592;29;20232;-78
2023/08/15 06:45:05;;;;;;;6.20;1.77;;;23.10;99.90;;;;;;4937912;29;20626;-77
2023/08/15 06:47:31;;;;;;;2.50;1.40;;;23.20;99.90;;;;;;4944827;29;20203;-76
2023/08/15 06:49:56;;;;;;;5.30;2.13;;;23.20;99.90;;;;;;4941009;29;20613;-79
2023/08/15 06:52:22;;;;;;;2.70;1.67;;;23.30;99.90;;;;;;4933487;29;20188;-79
2023/08/15 06:54:48;;;;;;;2.60;1.40;;;23.40;99.90;;;;;;4935146;29;20185;-79
2023/08/15 06:57:14;;;;;;;3.10;1.40;;;23.50;99.90;;;;;;4943213;29;20212;-79
2023/08/15 06:59:39;;;;;;;2.20;1.50;;;23.50;99.90;;;;;;4934644;29;20231;-75
2023/08/15 07:02:05;;;;;;;1.87;1.10;;;23.60;99.90;;;;;;4947541;28;20196;-76
2023/08/15 07:04:33;;;;;;;5.17;1.60;;;23.60;99.90;;;;;;4933677;29;20177;-76
2023/08/15 07:06:59;;;;;;;3.23;1.57;;;23.60;99.90;;;;;;4939365;29;21162;-77
2023/08/15 07:09:28;;;;;;;3.80;1.50;;;23.60;99.90;;;;;;4932785;28;20666;-77
2023/08/15 07:11:54;;;;;;;2.20;1.23;;;23.60;99.90;;;;;;4937819;29;20619;-78
2023/08/15 07:14:20;;;;;;;2.37;1.33;;;23.70;99.90;;;;;;4943029;29;20950;-78
2023/08/15 07:16:46;;;;;;;2.20;1.20;;;23.70;99.90;;;;;;4949384;29;20596;-77
2023/08/15 07:19:12;;;;;;;2.77;1.30;;;23.70;99.90;;;;;;4943470;28;20277;-77
2023/08/15 07:21:41;;;;;;;5.90;1.60;;;23.80;99.90;;;;;;4946370;29;20645;-77
2023/08/15 07:24:07;;;;;;;2.40;1.40;;;23.80;99.90;;;;;;4940128;29;20259;-77
2023/08/15 07:26:33;;;;;;;2.37;1.70;;;23.90;99.90;;;;;;4941824;29;21189;-77
2023/08/15 07:28:59;;;;;;;3.27;1.30;;;24.20;99.90;;;;;;4954796;29;20629;-78
2023/08/15 07:31:25;;;;;;;2.93;1.60;;;24.60;99.90;;;;;;4957417;29;20189;-78
2023/08/15 07:33:51;;;;;;;2.57;1.27;;;25.10;99.90;;;;;;4941576;29;20624;-77
2023/08/15 07:36:16;;;;;;;2.97;1.70;;;25.40;99.90;;;;;;4958190;29;20184;-77
2023/08/15 07:38:43;;;;;;;1.93;1.40;;;25.60;99.90;;;;;;4960939;29;20180;-77
2023/08/15 07:41:09;;;;;;;3.90;1.93;;;25.70;99.90;;;;;;4968068;28;20632;-77
2023/08/15 07:43:34;;;;;;;2.20;1.20;;;25.90;99.90;;;;;;4952341;29;20675;-76
2023/08/15 07:46:00;;;;;;;2.13;1.20;;;26.30;99.90;;;;;;4940779;29;20262;-77
2023/08/15 07:48:26;;;;;;;2.20;1.77;;;26.50;99.90;;;;;;4944156;29;20584;-77
2023/08/15 07:50:51;;;;;;;2.63;1.50;;;26.70;99.90;;;;;;4947178;29;20185;-77
2023/08/15 07:53:17;;;;;;;3.30;1.47;;;26.70;99.90;;;;;;4939716;29;20181;-78
2023/08/15 07:55:43;;;;;;;3.90;2.10;;;26.70;99.90;;;;;;4924248;29;20253;-78
2023/08/15 07:58:08;;;;;;;2.50;1.27;;;26.60;99.90;;;;;;4943866;29;20192;-77
2023/08/15 08:00:34;;;;;;;2.90;1.43;;;26.50;99.90;;;;;;4933807;29;20209;-77
2023/08/15 08:03:00;;;;;;;2.87;1.60;;;26.50;99.90;;;;;;4933730;29;20215;-75
2023/08/15 08:05:26;;;;;;;2.87;1.80;;;26.40;99.90;;;;;;4933344;29;20693;-75
2023/08/15 08:07:51;;;;;;;4.10;2.60;;;26.40;99.90;;;;;;4940346;29;20171;-75
2023/08/15 08:10:17;;;;;;;2.97;1.80;;;26.30;99.90;;;;;;4916739;29;20200;-75
2023/08/15 08:12:43;;;;;;;3.13;2.10;;;26.20;99.90;;;;;;4933450;29;20291;-75
2023/08/15 08:15:09;;;;;;;4.13;2.57;;;26.10;99.90;;;;;;4928956;29;20182;-75
2023/08/15 08:17:35;;;;;;;5.00;2.50;;;26.00;99.90;;;;;;4968949;28;20283;-75
2023/08/15 08:20:01;;;;;;;2.93;1.93;;;25.90;99.90;;;;;;4933127;29;21072;-74
2023/08/15 08:22:27;;;;;;;5.40;2.87;;;25.80;99.90;;;;;;4932321;29;20197;-75
2023/08/15 08:24:53;;;;;;;3.60;2.43;;;25.70;99.90;;;;;;4933262;29;20641;-75
2023/08/15 08:27:18;;;;;;;4.13;2.83;;;25.60;99.90;;;;;;4934687;29;20181;-75
2023/08/15 08:29:44;;;;;;;2.70;1.97;;;25.50;99.90;;;;;;4951416;28;20638;-75
2023/08/15 08:32:10;;;;;;;4.87;2.73;;;25.40;99.90;;;;;;4948032;28;20201;-75
2023/08/15 08:34:36;;;;;;;6.97;2.90;;;25.40;99.90;;;;;;4933380;29;20609;-75
2023/08/15 08:37:02;;;;;;;3.77;3.00;;;25.50;99.90;;;;;;4938407;29;20180;-75
2023/08/15 08:39:27;;;;;;;6.73;2.50;;;25.50;99.90;;;;;;4933647;29;20564;-75
2023/08/15 08:41:56;;;;;;;5.30;3.47;;;25.50;99.90;;;;;;4940683;29;20635;-75
2023/08/15 08:44:26;;;;;;;7.10;2.50;;;25.50;99.90;;;;;;4943458;29;20217;-74
2023/08/15 08:46:51;;;;;;;5.13;3.10;;;25.60;99.90;;;;;;4943539;29;20620;-74
2023/08/15 08:49:20;;;;;;;4.17;3.50;;;25.60;99.90;;;;;;4934926;29;21269;-75
2023/08/15 08:51:48;;;;;;;5.30;2.73;;;25.70;99.90;;;;;;4945444;28;20612;-75
2023/08/15 08:54:13;;;;;;;4.70;2.63;;;25.80;99.90;;;;;;4943149;29;20969;-75
2023/08/15 08:56:40;;;;;;;5.20;3.60;;;25.80;99.90;;;;;;4941716;29;20580;-76
2023/08/15 08:59:12;;;;;;;4.33;2.80;;;25.80;99.90;;;;;;4939841;29;20177;-75
2023/08/15 09:01:39;;;;;;;6.43;3.13;;;25.90;99.90;;;;;;4939888;28;21052;-74
2023/08/15 09:04:05;;;;;;;5.80;3.07;;;25.90;99.90;;;;;;4935995;28;20588;-74
2023/08/15 09:06:30;;;;;;;3.43;2.80;;;26.00;99.90;;;;;;4938034;29;20604;-74
2023/08/15 09:08:58;;;;;;;4.10;2.37;;;26.00;99.90;;;;;;4933225;29;20188;-74
2023/08/15 09:11:35;;;;;;;3.63;2.70;;;26.10;99.90;;;;;;4940983;29;20205;-75
2023/08/15 09:14:03;;;;;;;4.17;2.33;;;26.10;99.90;;;;;;4935184;29;20613;-74
2023/08/15 09:16:30;;;;;;;6.23;2.87;;;26.20;99.90;;;;;;4943934;29;20636;-75
2023/08/15 09:18:59;;;;;;;3.77;2.30;;;26.20;99.90;;;;;;4932495;29;20696;-74
2023/08/15 09:21:27;;;;;;;3.33;1.80;;;26.30;99.90;;;;;;4937242;29;20710;-74
2023/08/15 09:23:53;;;;;;;2.77;1.70;;;26.30;99.90;;;;;;4936113;29;20593;-74
2023/08/15 09:26:19;;;;;;;3.13;2.17;;;26.40;99.90;;;;;;4935114;29;20696;-75
2023/08/15 09:28:45;;;;;;;3.47;1.90;;;26.40;99.90;;;;;;4944221;29;20603;-74
2023/08/15 09:31:11;;;;;;;4.43;2.10;;;26.40;99.90;;;;;;4935895;29;20980;-75
2023/08/15 09:33:41;;;;;;;4.13;2.03;;;26.50;99.90;;;;;;4937596;29;20240;-75
2023/08/15 09:36:08;;;;;;;3.47;2.20;;;26.60;99.90;;;;;;4950917;28;20596;-74
2023/08/15 09:38:36;;;;;;;2.90;2.40;;;26.70;99.90;;;;;;4942536;28;20590;-75
2023/08/15 09:41:02;;;;;;;3.30;1.83;;;26.70;99.90;;;;;;4935062;29;20644;-74
2023/08/15 09:43:29;;;;;;;5.33;2.43;;;26.70;99.90;;;;;;4936312;29;20679;-74
2023/08/15 09:45:58;;;;;;;4.23;2.17;;;26.70;99.90;;;;;;4934696;29;20680;-74
2023/08/15 09:48:25;;;;;;;3.40;1.83;;;26.80;99.90;;;;;;4935259;29;21229;-74
2023/08/15 09:50:53;;;;;;;3.93;1.90;;;26.90;99.90;;;;;;4950715;29;20976;-75
2023/08/15 09:53:22;;;;;;;5.33;2.03;;;26.90;99.90;;;;;;4935205;29;20620;-75
2023/08/15 09:55:48;;;;;;;4.10;2.13;;;27.00;99.90;;;;;;4939854;29;20678;-74
2023/08/15 09:58:14;;;;;;;2.90;2.17;;;27.10;99.90;;;;;;4944087;28;20675;-73
2023/08/15 10:00:40;;;;;;;3.27;1.60;;;27.20;99.90;;;;;;4935378;29;20641;-74
2023/08/15 10:03:24;;;;;;;3.63;1.60;;;27.30;99.90;;;;;;4934886;29;20648;-73
2023/08/15 10:05:57;;;;;;;4.00;1.73;;;27.40;99.90;;;;;;4900972;29;20594;-73
2023/08/15 10:08:24;;;;;;;2.90;1.90;;;27.60;99.90;;;;;;4942674;29;20591;-73
2023/08/15 10:10:51;;;;;;;3.40;1.83;;;27.80;99.90;;;;;;4934807;29;20613;-74
2023/08/15 10:13:25;;;;;;;2.40;1.43;;;27.90;99.90;;;;;;4947178;29;20595;-74
2023/08/15 10:15:52;;;;;;;3.20;1.87;;;28.10;99.90;;;;;;4937407;29;21165;-75
2023/08/15 10:18:18;;;;;;;2.50;1.53;;;28.30;99.90;;;;;;4935812;29;20588;-75
2023/08/15 10:20:50;;;;;;;2.30;1.23;;;28.50;99.90;;;;;;4935142;29;20632;-76
2023/08/15 10:23:31;;;;;;;4.23;1.70;;;28.70;99.90;;;;;;4939000;29;20550;-76
2023/08/15 10:25:58;;;;;;;2.80;1.50;;;28.90;99.90;;;;;;4942087;29;20585;-75
2023/08/15 10:28:27;;;;;;;4.07;2.37;;;29.10;99.90;;;;;;4939558;29;21135;-75
2023/08/15 10:30:54;;;;;;;4.00;1.77;;;29.30;99.90;;;;;;4933544;29;20585;-74
2023/08/15 10:33:31;;;;;;;5.53;1.93;;;29.60;99.90;;;;;;4935467;29;20608;-75
2023/08/15 10:35:57;;;;;;;3.40;1.70;;;29.80;99.90;;;;;;4944215;29;20595;-75
2023/08/15 10:38:27;;;;;;;3.80;1.40;;;30.10;99.90;;;;;;4940050;29;20589;-75
2023/08/15 10:41:00;;;;;;;4.53;1.50;;;30.30;99.90;;;;;;4933725;29;20219;-74
2023/08/15 10:43:28;;;;;;;2.00;1.37;;;30.50;99.90;;;;;;4935352;29;20577;-75
2023/08/15 10:46:04;;;;;;;2.90;1.30;;;30.80;99.90;;;;;;4936046;29;20672;-75
2023/08/15 10:48:50;;;;;;;4.97;2.70;;;30.80;99.90;;;;;;4939306;29;20752;-75
2023/08/15 10:51:19;;;;;;;4.10;1.27;;;30.80;99.90;;;;;;4934816;29;20621;-76
2023/08/15 10:53:49;;;;;;;3.10;1.20;;;31.00;99.90;;;;;;4933106;29;20627;-75
2023/08/15 10:56:18;;;;;;;2.67;1.40;;;31.00;99.90;;;;;;4936339;29;20733;-75
2023/08/15 10:58:45;;;;;;;2.37;1.37;;;31.10;99.90;;;;;;4937171;29;20589;-75
2023/08/15 11:01:15;;;;;;;4.27;1.40;;;31.20;99.90;;;;;;4927833;29;20652;-75
2023/08/15 11:03:42;;;;;;;3.37;1.40;;;31.20;99.90;;;;;;4934396;29;20615;-76
2023/08/15 11:06:09;;;;;;;2.97;1.40;;;31.30;99.90;;;;;;4936668;29;20595;-75
2023/08/15 11:08:44;;;;;;;2.13;1.13;;;31.20;99.90;;;;;;4939509;29;20596;-76
2023/08/15 11:11:10;;;;;;;3.40;1.60;;;31.20;99.90;;;;;;4944620;28;20657;-75
2023/08/15 11:13:38;;;;;;;3.57;1.07;;;31.10;99.90;;;;;;4942962;29;20636;-75
2023/08/15 11:16:05;;;;;;;2.67;1.30;;;31.00;99.90;;;;;;4933176;29;20692;-75
2023/08/15 11:18:31;;;;;;;3.40;1.33;;;30.90;99.90;;;;;;4933330;29;21164;-75
2023/08/15 11:20:58;;;;;;;2.50;1.37;;;30.80;99.90;;;;;;4932953;29;20698;-75
2023/08/15 11:23:27;;;;;;;3.13;1.63;;;30.70;99.90;;;;;;4941120;29;20613;-75
2023/08/15 11:25:52;;;;;;;4.33;1.70;;;30.80;99.90;;;;;;4932945;29;20590;-75
2023/08/15 11:28:18;;;;;;;3.83;1.40;;;30.90;99.90;;;;;;4937690;29;20595;-76
2023/08/15 11:30:45;;;;;;;3.10;1.70;;;31.00;99.90;;;;;;4934273;29;20606;-76
2023/08/15 11:33:11;;;;;;;2.00;1.43;;;31.20;99.90;;;;;;4935804;29;20637;-76
2023/08/15 11:35:45;;;;;;;3.30;1.40;;;31.40;99.90;;;;;;4946430;29;20271;-76
2023/08/15 11:38:11;;;;;;;2.23;1.30;;;31.60;99.90;;;;;;4933056;29;20187;-75
2023/08/15 11:40:37;;;;;;;3.90;1.90;;;31.80;99.90;;;;;;4917301;29;21037;-75
2023/08/15 11:43:03;;;;;;;4.13;1.67;;;32.00;99.90;;;;;;4932355;29;20665;-75
2023/08/15 11:45:32;;;;;;;3.53;1.60;;;32.20;99.90;;;;;;4947604;29;20383;-77
2023/08/15 11:48:03;;;;;;;2.17;1.80;;;32.40;99.90;;;;;;4941931;28;20600;-77
2023/08/15 11:50:31;;;;;;;2.40;1.40;;;32.60;99.90;;;;;;4942505;29;20643;-79
2023/08/15 11:52:57;;;;;;;2.77;1.17;;;32.80;99.90;;;;;;4947332;29;20658;-79
2023/08/15 11:55:23;;;;;;;3.90;1.93;;;32.90;99.90;;;;;;4903539;29;20596;-80
2023/08/15 11:57:50;;;;;;;2.93;2.20;;;33.00;99.90;;;;;;4941032;29;20873;-77
2023/08/15 12:00:20;;;;;;;3.70;2.37;;;32.90;99.90;;;;;;4933942;29;20662;-78
2023/08/15 12:02:48;;;;;;;2.67;1.60;;;32.90;99.90;;;;;;4941713;29;21250;-78
2023/08/15 12:05:18;;;;;;;3.30;1.33;;;32.90;99.90;;;;;;4953199;28;20950;-77
2023/08/15 12:07:44;;;;;;;2.53;1.73;;;32.80;99.90;;;;;;4951882;29;20589;-78
2023/08/15 12:10:12;;;;;;;2.73;1.30;;;32.80;99.90;;;;;;4951810;29;21453;-77
2023/08/15 12:12:46;;;;;;;3.77;1.87;;;32.80;99.90;;;;;;4947810;28;20622;-77
2023/08/15 12:15:14;;;;;;;5.70;1.87;;;32.80;99.90;;;;;;4943724;29;20609;-77
2023/08/15 12:17:40;;;;;;;2.63;1.80;;;32.80;99.90;;;;;;4951984;29;20743;-78
2023/08/15 13:59:06;;;;;;;4.07;3.20;;;29.40;99.90;;;;;;4936203;29;20770;-74
2023/08/15 14:01:33;;;;;;;3.57;3.27;;;29.20;99.90;;;;;;4940482;29;20654;-74
2023/08/15 14:03:59;;;;;;;3.67;3.23;;;29.00;99.90;;;;;;4955231;28;20696;-74
2023/08/15 14:06:26;;;;;;;5.40;2.80;;;28.90;99.90;;;;;;4944555;28;20699;-74
2023/08/15 14:08:52;;;;;;;5.40;3.40;;;28.80;99.90;;;;;;4954026;29;20610;-74
2023/08/15 14:11:17;;;;;;;4.60;3.20;;;28.70;99.90;;;;;;4955446;28;21213;-74
2023/08/15 14:13:45;;;;;;;5.70;3.67;;;28.60;99.90;;;;;;4952422;29;20268;-73
2023/08/15 14:16:11;;;;;;;4.93;2.77;;;28.50;99.90;;;;;;4947495;29;20188;-74
2023/08/15 14:18:37;;;;;;;3.30;2.80;;;28.50;99.90;;;;;;4933402;29;20607;-74
2023/08/15 14:21:04;;;;;;;5.03;3.43;;;28.40;99.90;;;;;;4942346;29;20653;-74
2023/08/15 14:23:29;;;;;;;6.30;3.53;;;28.50;99.90;;;;;;4953403;29;20180;-74
2023/08/15 14:25:57;;;;;;;5.77;3.47;;;28.50;99.90;;;;;;4945542;29;21360;-74